createdAt,value
2023-04-29T00:00:07.416Z,14.50
2023-04-29T00:02:34.302Z,14.40
2023-04-29T00:05:01.352Z,14.30
2023-04-29T00:07:28.322Z,14.40
2023-04-29T00:09:54.973Z,14.50
2023-04-29T00:12:21.666Z,14.50
2023-04-29T00:14:48.263Z,14.60
2023-04-29T00:17:16.181Z,14.60
2023-04-29T00:19:43.390Z,14.60
2023-04-29T00:22:09.968Z,14.40
2023-04-29T00:24:36.535Z,14.30
2023-04-29T00:27:03.185Z,14.30
2023-04-29T00:29:29.810Z,14.10
2023-04-29T00:31:56.363Z,14.10
2023-04-29T00:34:23.086Z,14.20
2023-04-29T00:36:50.485Z,14.30
2023-04-29T00:39:17.097Z,14.40
2023-04-29T00:41:44.074Z,14.40
2023-04-29T00:44:11.476Z,14.40
2023-04-29T00:46:38.428Z,14.30
2023-04-29T00:49:05.568Z,14.20
2023-04-29T00:51:33.218Z,14.30
2023-04-29T00:53:59.849Z,14.30
2023-04-29T00:56:27.132Z,14.40
2023-04-29T00:58:53.739Z,14.30
2023-04-29T01:01:21.701Z,14.30
2023-04-29T01:03:48.891Z,14.40
2023-04-29T01:06:22.495Z,14.50
2023-04-29T01:08:55.341Z,14.50
2023-04-29T01:11:23.954Z,14.50
2023-04-29T01:13:51.018Z,14.40
2023-04-29T01:16:29.735Z,14.30
2023-04-29T01:18:58.638Z,14.10
2023-04-29T01:21:25.427Z,14.10
2023-04-29T01:23:56.058Z,14.20
2023-04-29T01:26:23.296Z,14.20
2023-04-29T01:29:12.992Z,14.20
2023-04-29T01:31:46.762Z,14.30
2023-04-29T01:34:13.566Z,14.30
2023-04-29T01:36:43.193Z,14.20
2023-04-29T01:39:20.842Z,14.20
2023-04-29T01:41:59.414Z,14.10
2023-04-29T01:44:28.798Z,14.20
2023-04-29T01:46:56.459Z,14.20
2023-04-29T01:49:26.964Z,14.10
2023-04-29T01:51:53.635Z,14.10
2023-04-29T01:54:20.974Z,14.10
2023-04-29T01:56:47.761Z,14.20
2023-04-29T01:59:14.361Z,14.20
2023-04-29T02:01:41.224Z,14.10
2023-04-29T02:04:07.897Z,14.20
2023-04-29T02:06:34.591Z,14.20
2023-04-29T02:09:01.238Z,14.00
2023-04-29T02:11:27.823Z,13.80
2023-04-29T02:13:54.823Z,13.80
2023-04-29T02:16:21.625Z,13.90
2023-04-29T02:18:48.276Z,14.00
2023-04-29T02:21:14.842Z,14.10
2023-04-29T02:23:41.433Z,14.00
2023-04-29T02:26:09.336Z,14.00
2023-04-29T02:28:36.232Z,14.00
2023-04-29T02:31:02.898Z,13.90
2023-04-29T02:33:29.517Z,13.90
2023-04-29T02:35:56.094Z,13.90
2023-04-29T02:38:24.532Z,13.90
2023-04-29T02:40:51.281Z,13.80
2023-04-29T02:43:17.839Z,13.70
2023-04-29T02:45:44.720Z,13.70
2023-04-29T02:48:11.702Z,13.80
2023-04-29T02:50:38.322Z,13.70
2023-04-29T02:53:04.907Z,13.50
2023-04-29T02:55:31.495Z,13.50
2023-04-29T02:57:58.064Z,13.60
2023-04-29T03:00:24.748Z,13.60
2023-04-29T03:02:51.523Z,13.50
2023-04-29T03:05:19.115Z,13.50
2023-04-29T03:07:45.704Z,13.50
2023-04-29T03:10:12.503Z,13.50
2023-04-29T03:12:39.439Z,13.70
2023-04-29T03:15:07.161Z,13.60
2023-04-29T03:17:34.649Z,13.60
2023-04-29T03:20:01.627Z,13.60
2023-04-29T03:22:28.303Z,13.60
2023-04-29T03:24:55.019Z,13.60
2023-04-29T03:27:22.214Z,13.60
2023-04-29T03:29:49.420Z,13.60
2023-04-29T03:32:16.088Z,13.60
2023-04-29T03:34:42.699Z,13.60
2023-04-29T03:37:09.389Z,13.60
2023-04-29T03:39:36.040Z,13.70
2023-04-29T03:42:03.079Z,13.50
2023-04-29T03:44:29.859Z,13.50
2023-04-29T03:46:56.490Z,13.40
2023-04-29T03:49:23.760Z,13.40
2023-04-29T03:51:50.565Z,13.50
2023-04-29T03:54:17.146Z,13.50
2023-04-29T03:56:43.797Z,13.60
2023-04-29T03:59:10.395Z,13.70
2023-04-29T04:01:37.020Z,13.70
2023-04-29T04:04:03.845Z,13.80
2023-04-29T04:06:31.804Z,13.80
2023-04-29T04:08:58.436Z,13.70
2023-04-29T04:11:25.044Z,13.60
2023-04-29T04:13:52.017Z,13.70
2023-04-29T04:16:18.693Z,13.60
2023-04-29T04:18:45.345Z,13.60
2023-04-29T04:21:12.422Z,13.70
2023-04-29T04:23:42.494Z,13.70
2023-04-29T04:26:09.228Z,13.80
2023-04-29T04:28:35.828Z,13.80
2023-04-29T04:31:02.487Z,13.80
2023-04-29T04:33:29.182Z,13.80
2023-04-29T04:35:55.786Z,13.60
2023-04-29T04:38:25.287Z,13.60
2023-04-29T04:40:51.922Z,13.60
2023-04-29T04:43:18.904Z,13.60
2023-04-29T04:45:45.783Z,13.70
2023-04-29T04:48:12.464Z,13.70
2023-04-29T04:50:39.129Z,13.70
2023-04-29T04:53:05.854Z,13.80
2023-04-29T04:55:33.613Z,13.80
2023-04-29T04:58:00.248Z,13.70
2023-04-29T05:00:26.862Z,13.70
2023-04-29T05:02:53.609Z,13.80
2023-04-29T05:05:20.293Z,13.80
2023-04-29T05:07:47.274Z,13.80
2023-04-29T05:10:13.878Z,13.80
2023-04-29T05:12:40.597Z,13.90
2023-04-29T05:15:07.891Z,13.80
2023-04-29T05:17:36.371Z,13.80
2023-04-29T05:20:03.420Z,13.80
2023-04-29T05:22:30.128Z,13.80
2023-04-29T05:25:02.615Z,13.90
2023-04-29T05:27:29.405Z,13.80
2023-04-29T05:29:56.033Z,13.70
2023-04-29T05:32:22.810Z,13.70
2023-04-29T05:34:49.368Z,13.80
2023-04-29T05:37:15.950Z,13.70
2023-04-29T05:39:42.682Z,13.80
2023-04-29T05:42:09.264Z,13.80
2023-04-29T05:44:36.014Z,13.80
2023-04-29T05:47:02.652Z,13.80
2023-04-29T05:49:29.230Z,13.80
2023-04-29T05:51:55.873Z,13.90
2023-04-29T05:54:22.506Z,13.80
2023-04-29T05:56:49.094Z,13.80
2023-04-29T05:59:15.850Z,13.80
2023-04-29T06:01:42.831Z,13.80
2023-04-29T06:04:09.688Z,13.90
2023-04-29T06:06:36.792Z,14.00
2023-04-29T06:09:08.468Z,14.00
2023-04-29T06:11:37.574Z,14.00
2023-04-29T06:14:04.138Z,14.00
2023-04-29T06:16:30.815Z,14.00
2023-04-29T06:18:57.461Z,14.00
2023-04-29T06:21:24.114Z,14.00
2023-04-29T06:23:50.698Z,14.00
2023-04-29T06:26:17.432Z,14.00
2023-04-29T06:28:44.048Z,14.00
2023-04-29T06:31:10.737Z,14.00
2023-04-29T06:33:37.435Z,14.10
2023-04-29T06:36:04.443Z,14.10
2023-04-29T06:38:31.324Z,14.20
2023-04-29T06:41:00.707Z,14.20
2023-04-29T06:43:27.779Z,14.30
2023-04-29T06:45:54.357Z,14.30
2023-04-29T06:48:21.273Z,14.30
2023-04-29T06:50:51.449Z,14.30
2023-04-29T06:53:18.252Z,14.20
2023-04-29T06:55:46.319Z,14.20
2023-04-29T06:58:14.112Z,14.20
2023-04-29T07:00:40.894Z,14.20
2023-04-29T07:03:07.648Z,14.30
2023-04-29T07:05:34.340Z,14.30
2023-04-29T07:08:00.966Z,14.30
2023-04-29T07:10:27.761Z,14.30
2023-04-29T07:12:54.419Z,14.30
2023-04-29T07:15:21.117Z,14.30
2023-04-29T07:17:47.725Z,14.30
2023-04-29T07:20:14.570Z,14.30
2023-04-29T07:22:41.165Z,14.30
2023-04-29T07:25:07.988Z,14.30
2023-04-29T07:27:35.146Z,14.30
2023-04-29T07:30:01.814Z,14.30
2023-04-29T07:32:28.617Z,14.30
2023-04-29T07:34:55.549Z,14.30
2023-04-29T07:37:22.262Z,14.30
2023-04-29T07:39:48.958Z,14.30
2023-04-29T07:42:15.695Z,14.40
2023-04-29T07:44:42.313Z,14.40
2023-04-29T07:47:08.881Z,14.40
2023-04-29T07:49:35.516Z,14.40
2023-04-29T07:52:02.339Z,14.20
2023-04-29T07:54:28.982Z,14.30
2023-04-29T07:56:57.563Z,14.30
2023-04-29T07:59:24.198Z,14.30
2023-04-29T08:01:50.784Z,14.30
2023-04-29T08:04:17.604Z,14.20
2023-04-29T08:06:44.551Z,14.30
2023-04-29T08:09:11.356Z,14.20
2023-04-29T08:11:39.859Z,14.20
2023-04-29T08:14:06.455Z,14.30
2023-04-29T08:16:33.219Z,14.30
2023-04-29T08:18:59.899Z,14.30
2023-04-29T08:21:27.600Z,14.30
2023-04-29T08:23:55.587Z,14.30
2023-04-29T08:26:24.067Z,14.30
2023-04-29T08:28:50.917Z,14.20
2023-04-29T08:31:21.026Z,14.30
2023-04-29T08:33:48.216Z,14.20
2023-04-29T08:36:14.913Z,14.20
2023-04-29T08:38:41.604Z,14.20
2023-04-29T08:41:11.899Z,14.20
2023-04-29T08:43:40.799Z,14.20
2023-04-29T08:46:07.716Z,14.10
2023-04-29T08:48:36.109Z,14.20
2023-04-29T08:51:02.927Z,14.20
2023-04-29T08:53:29.659Z,14.20
2023-04-29T08:55:57.895Z,14.10
2023-04-29T08:58:25.400Z,14.10
2023-04-29T09:00:52.364Z,14.20
2023-04-29T09:03:25.272Z,14.20
2023-04-29T09:05:56.297Z,14.10
2023-04-29T09:08:24.213Z,14.00
2023-04-29T09:10:53.937Z,13.90
2023-04-29T09:13:27.461Z,13.70
2023-04-29T09:15:54.228Z,13.70
2023-04-29T09:18:59.296Z,13.70
2023-04-29T09:21:27.247Z,13.70
2023-04-29T09:23:57.987Z,13.80
2023-04-29T09:26:25.099Z,13.70
2023-04-29T09:29:06.048Z,13.70
2023-04-29T09:31:32.690Z,13.70
2023-04-29T09:33:59.335Z,13.70
2023-04-29T09:37:04.277Z,13.60
2023-04-29T09:39:38.319Z,13.60
2023-04-29T09:42:05.748Z,13.50
2023-04-29T09:44:35.699Z,13.70
2023-04-29T09:47:03.561Z,13.80
2023-04-29T09:49:31.209Z,13.80
2023-04-29T09:51:59.332Z,13.90
2023-04-29T09:54:29.942Z,13.70
2023-04-29T09:56:57.520Z,13.60
2023-04-29T09:59:24.418Z,13.70
2023-04-29T10:01:52.186Z,13.70
2023-04-29T10:04:19.392Z,13.60
2023-04-29T10:06:48.351Z,13.60
2023-04-29T10:09:18.526Z,13.60
2023-04-29T10:11:45.741Z,13.60
2023-04-29T10:14:13.646Z,13.70
2023-04-29T10:16:46.608Z,13.70
2023-04-29T10:19:15.667Z,13.80
2023-04-29T10:21:42.636Z,13.80
2023-04-29T10:24:10.738Z,13.90
2023-04-29T10:26:39.028Z,14.00
2023-04-29T10:29:08.161Z,14.10
2023-04-29T10:31:35.489Z,14.10
2023-04-29T10:34:02.332Z,14.10
2023-04-29T10:36:30.369Z,14.20
2023-04-29T10:38:59.401Z,14.00
2023-04-29T10:41:37.859Z,13.80
2023-04-29T10:44:04.698Z,13.80
2023-04-29T10:46:31.432Z,13.70
2023-04-29T10:49:03.177Z,13.90
2023-04-29T10:51:33.040Z,14.00
2023-04-29T10:54:00.862Z,14.20
2023-04-29T10:57:03.506Z,14.30
2023-04-29T10:59:33.042Z,14.30
2023-04-29T11:01:59.657Z,14.40
2023-04-29T11:04:26.232Z,14.40
2023-04-29T11:06:56.429Z,14.30
2023-04-29T11:09:27.113Z,14.30
2023-04-29T11:11:58.274Z,14.30
2023-04-29T11:14:45.306Z,14.50
2023-04-29T11:17:15.688Z,14.80
2023-04-29T11:19:45.389Z,14.90
2023-04-29T11:22:18.238Z,15.00
2023-04-29T11:24:51.988Z,15.00
2023-04-29T11:27:19.851Z,14.90
2023-04-29T11:29:47.609Z,14.90
2023-04-29T11:32:14.749Z,14.90
2023-04-29T11:34:41.513Z,15.00
2023-04-29T11:37:08.306Z,15.00
2023-04-29T11:39:36.156Z,15.00
2023-04-29T11:42:03.420Z,15.20
2023-04-29T11:44:30.214Z,15.30
2023-04-29T11:47:23.103Z,15.30
2023-04-29T11:49:49.785Z,15.30
2023-04-29T11:52:16.432Z,15.30
2023-04-29T11:54:43.057Z,15.30
2023-04-29T11:57:10.474Z,15.30
2023-04-29T11:59:37.053Z,15.30
2023-04-29T12:02:03.665Z,15.20
2023-04-29T12:04:30.609Z,15.20
2023-04-29T12:06:58.242Z,15.10
2023-04-29T12:09:24.844Z,15.00
2023-04-29T12:11:51.717Z,14.90
2023-04-29T12:14:18.945Z,14.90
2023-04-29T12:16:46.357Z,15.00
2023-04-29T12:19:13.056Z,15.10
2023-04-29T12:21:48.636Z,15.10
2023-04-29T12:24:15.385Z,15.30
2023-04-29T12:26:42.414Z,15.40
2023-04-29T12:29:10.632Z,15.40
2023-04-29T12:31:37.267Z,15.30
2023-04-29T12:34:06.378Z,15.30
2023-04-29T12:36:35.030Z,15.40
2023-04-29T12:39:01.652Z,15.40
2023-04-29T12:41:38.418Z,15.40
2023-04-29T12:44:05.858Z,15.40
2023-04-29T12:46:39.129Z,15.50
2023-04-29T12:49:06.090Z,15.60
2023-04-29T12:51:32.938Z,15.70
2023-04-29T12:54:01.377Z,15.80
2023-04-29T12:56:28.093Z,15.90
2023-04-29T12:58:54.700Z,15.90
2023-04-29T13:01:21.462Z,16.10
2023-04-29T13:03:49.633Z,16.10
2023-04-29T13:06:17.986Z,16.20
2023-04-29T13:08:44.676Z,16.10
2023-04-29T13:11:13.753Z,16.20
2023-04-29T13:13:40.633Z,16.10
2023-04-29T13:16:07.917Z,16.30
2023-04-29T13:18:36.536Z,16.30
2023-04-29T13:21:03.357Z,16.40
2023-04-29T13:23:30.024Z,16.40
2023-04-29T13:25:57.071Z,16.40
2023-04-29T13:28:23.752Z,16.40
2023-04-29T13:30:50.800Z,16.50
2023-04-29T13:33:18.526Z,16.70
2023-04-29T13:35:45.768Z,17.10
2023-04-29T13:38:12.362Z,17.50
2023-04-29T13:40:45.257Z,17.40
2023-04-29T13:43:15.789Z,17.10
2023-04-29T13:45:47.867Z,16.90
2023-04-29T13:48:33.515Z,16.90
2023-04-29T13:51:27.061Z,16.70
2023-04-29T14:02:08.000Z,16.00
2023-04-29T14:04:03.991Z,16.00
2023-04-29T14:06:32.232Z,16.10
2023-04-29T14:09:00.555Z,16.10
2023-04-29T14:11:28.661Z,16.20
2023-04-29T14:13:55.307Z,16.30
2023-04-29T14:16:21.949Z,16.40
2023-04-29T14:18:48.589Z,16.60
2023-04-29T14:21:15.195Z,16.90
2023-04-29T14:23:41.789Z,17.10
2023-04-29T14:26:26.603Z,17.40
2023-04-29T14:28:57.827Z,17.50
2023-04-29T14:31:28.711Z,17.60
2023-04-29T14:33:56.053Z,17.90
2023-04-29T14:36:22.976Z,18.30
2023-04-29T14:38:49.711Z,18.80
2023-04-29T14:41:16.538Z,19.50
2023-04-29T14:43:43.260Z,20.20
2023-04-29T14:46:10.160Z,21.00
2023-04-29T14:48:36.775Z,21.40
2023-04-29T14:51:03.443Z,21.80
2023-04-29T14:53:30.073Z,21.40
2023-04-29T14:55:56.721Z,21.30
2023-04-29T14:58:23.646Z,20.80
2023-04-29T15:00:50.957Z,20.10
2023-04-29T15:03:22.442Z,19.60
2023-04-29T15:05:52.275Z,19.00
2023-04-29T15:08:19.305Z,18.30
2023-04-29T15:10:47.265Z,17.90
2023-04-29T15:13:13.949Z,17.60
2023-04-29T15:15:40.574Z,17.50
2023-04-29T15:18:08.725Z,17.30
2023-04-29T15:20:36.524Z,17.20
2023-04-29T15:23:03.922Z,17.00
2023-04-29T15:25:30.861Z,17.00
2023-04-29T15:27:59.057Z,16.90
2023-04-29T15:30:28.586Z,16.90
2023-04-29T15:32:55.462Z,17.00
2023-04-29T15:35:22.347Z,17.00
2023-04-29T15:37:49.179Z,16.90
2023-04-29T15:40:16.869Z,16.80
2023-04-29T15:42:43.654Z,16.80
2023-04-29T15:45:10.772Z,16.80
2023-04-29T15:47:37.497Z,16.70
2023-04-29T15:50:04.320Z,16.60
2023-04-29T15:52:30.997Z,16.50
2023-04-29T15:54:58.378Z,16.40
2023-04-29T15:57:25.841Z,16.20
2023-04-29T15:59:52.807Z,16.30
2023-04-29T16:02:20.414Z,16.30
2023-04-29T16:04:47.075Z,16.20
2023-04-29T16:07:13.752Z,16.10
2023-04-29T16:09:40.423Z,16.10
2023-04-29T16:12:08.028Z,16.20
2023-04-29T16:14:34.666Z,16.20
2023-04-29T16:17:01.478Z,16.20
2023-04-29T16:19:28.298Z,16.20
2023-04-29T16:21:55.513Z,16.10
2023-04-29T16:24:22.250Z,16.10
2023-04-29T16:26:49.568Z,16.20
2023-04-29T16:29:16.241Z,16.30
2023-04-29T16:31:43.814Z,16.50
2023-04-29T16:34:10.625Z,16.60
2023-04-29T16:36:37.518Z,16.70
2023-04-29T16:39:04.719Z,16.60
2023-04-29T16:41:31.952Z,16.60
2023-04-29T16:43:58.820Z,16.60
2023-04-29T16:46:25.932Z,16.60
2023-04-29T16:48:56.636Z,16.50
2023-04-29T16:51:26.419Z,16.40
2023-04-29T16:53:53.496Z,16.30
2023-04-29T16:56:21.471Z,16.20
2023-04-29T16:58:48.382Z,16.20
2023-04-29T17:01:15.353Z,16.10
2023-04-29T17:03:41.990Z,16.10
2023-04-29T17:06:08.740Z,16.00
2023-04-29T17:08:35.437Z,15.90
2023-04-29T17:11:02.974Z,15.90
2023-04-29T17:13:29.731Z,15.90
2023-04-29T17:15:56.919Z,15.90
2023-04-29T17:18:23.619Z,15.90
2023-04-29T17:20:50.975Z,15.90
2023-04-29T17:23:18.245Z,15.90
2023-04-29T17:25:45.090Z,15.90
2023-04-29T17:28:11.677Z,15.90
2023-04-29T17:30:38.411Z,15.90
2023-04-29T17:33:08.731Z,16.00
2023-04-29T17:35:35.335Z,16.00
2023-04-29T17:38:01.965Z,16.00
2023-04-29T17:40:28.539Z,16.00
2023-04-29T17:42:55.155Z,15.90
2023-04-29T17:45:21.835Z,15.80
2023-04-29T17:47:48.570Z,15.80
2023-04-29T17:50:15.412Z,15.70
2023-04-29T17:52:42.755Z,15.70
2023-04-29T17:55:09.978Z,15.70
2023-04-29T17:57:38.026Z,15.60
2023-04-29T18:00:08.470Z,15.60
2023-04-29T18:02:35.185Z,15.50
2023-04-29T18:05:03.051Z,15.40
2023-04-29T18:07:29.779Z,15.40
2023-04-29T18:09:56.710Z,15.40
2023-04-29T18:12:24.099Z,15.40
2023-04-29T18:14:51.722Z,15.30
2023-04-29T18:17:18.448Z,15.30
2023-04-29T18:19:46.428Z,15.20
2023-04-29T18:22:13.216Z,15.10
2023-04-29T18:24:39.781Z,15.20
2023-04-29T18:27:06.510Z,15.10
2023-04-29T18:29:33.204Z,15.10
2023-04-29T18:31:59.890Z,15.00
2023-04-29T18:34:26.560Z,15.00
2023-04-29T18:36:53.264Z,15.00
2023-04-29T18:39:19.828Z,14.90
2023-04-29T18:41:46.705Z,14.80
2023-04-29T18:44:13.724Z,14.80
2023-04-29T18:46:40.499Z,14.70
2023-04-29T18:49:08.649Z,14.60
2023-04-29T18:51:35.235Z,14.50
2023-04-29T18:54:01.819Z,14.30
2023-04-29T18:56:28.492Z,14.30
2023-04-29T18:58:55.078Z,14.20
2023-04-29T19:01:21.708Z,14.30
2023-04-29T19:03:48.355Z,14.20
2023-04-29T19:06:15.036Z,14.10
2023-04-29T19:08:41.628Z,14.10
2023-04-29T19:11:08.287Z,14.10
2023-04-29T19:13:34.932Z,14.20
2023-04-29T19:16:01.630Z,14.20
2023-04-29T19:18:28.502Z,14.10
2023-04-29T19:20:56.046Z,14.10
2023-04-29T19:23:22.735Z,14.10
2023-04-29T19:25:49.379Z,14.00
2023-04-29T19:28:16.083Z,14.00
2023-04-29T19:30:42.777Z,13.90
2023-04-29T19:33:09.451Z,13.90
2023-04-29T19:35:36.140Z,13.80
2023-04-29T19:38:03.005Z,13.80
2023-04-29T19:40:29.618Z,13.70
2023-04-29T19:42:56.208Z,13.70
2023-04-29T19:45:23.790Z,13.70
2023-04-29T19:47:50.412Z,13.60
2023-04-29T19:50:17.082Z,13.60
2023-04-29T19:52:43.753Z,13.60
2023-04-29T19:55:10.440Z,13.60
2023-04-29T19:57:38.300Z,13.60
2023-04-29T20:00:05.944Z,13.60
2023-04-29T20:02:33.011Z,13.50
2023-04-29T20:04:59.703Z,13.40
2023-04-29T20:07:26.282Z,13.40
2023-04-29T20:09:53.409Z,13.40
2023-04-29T20:12:20.457Z,13.40
2023-04-29T20:14:47.318Z,13.40
2023-04-29T20:17:14.120Z,13.40
2023-04-29T20:19:40.712Z,13.30
2023-04-29T20:22:07.364Z,13.30
2023-04-29T20:24:34.087Z,13.30
2023-04-29T20:27:01.477Z,13.30
2023-04-29T20:29:29.826Z,13.20
2023-04-29T20:31:56.500Z,13.10
2023-04-29T20:34:23.132Z,13.10
2023-04-29T20:36:49.746Z,13.10
2023-04-29T20:39:17.828Z,13.10
2023-04-29T20:41:44.713Z,13.10
2023-04-29T20:44:11.360Z,13.10
2023-04-29T20:46:38.248Z,13.10
2023-04-29T20:49:05.087Z,13.10
2023-04-29T20:51:32.853Z,13.00
2023-04-29T20:53:59.518Z,13.00
2023-04-29T20:56:26.310Z,13.00
2023-04-29T20:58:52.941Z,13.00
2023-04-29T21:01:19.565Z,12.80
2023-04-29T21:03:46.200Z,12.80
2023-04-29T21:06:12.802Z,12.50
2023-04-29T21:08:39.408Z,12.20
2023-04-29T21:11:07.742Z,12.30
2023-04-29T21:13:34.400Z,12.40
2023-04-29T21:16:01.177Z,12.50
2023-04-29T21:18:28.034Z,12.60
2023-04-29T21:20:54.702Z,12.60
2023-04-29T21:23:22.623Z,12.60
2023-04-29T21:25:49.310Z,12.70
2023-04-29T21:28:16.988Z,12.70
2023-04-29T21:30:43.806Z,12.70
2023-04-29T21:33:10.948Z,12.70
2023-04-29T21:35:41.822Z,12.70
2023-04-29T21:38:08.627Z,12.70
2023-04-29T21:40:37.439Z,12.70
2023-04-29T21:43:04.082Z,12.80
2023-04-29T21:45:30.796Z,12.70
2023-04-29T21:48:00.455Z,12.70
2023-04-29T21:50:27.117Z,12.70
2023-04-29T21:52:55.656Z,12.70
2023-04-29T21:55:22.294Z,12.70
2023-04-29T21:57:48.887Z,12.70
2023-04-29T22:00:32.902Z,12.70
2023-04-29T22:03:00.609Z,12.70
2023-04-29T22:05:27.275Z,12.60
2023-04-29T22:07:54.081Z,12.50
2023-04-29T22:10:20.847Z,12.40
2023-04-29T22:12:47.502Z,12.40
2023-04-29T22:15:27.519Z,12.40
2023-04-29T22:17:56.837Z,12.30
2023-04-29T22:20:23.546Z,12.20
2023-04-29T22:22:50.551Z,12.20
2023-04-29T22:25:19.610Z,12.10
2023-04-29T22:27:46.454Z,12.00
2023-04-29T22:30:13.783Z,12.10
2023-04-29T22:32:40.677Z,12.10
2023-04-29T22:35:07.701Z,12.20
2023-04-29T22:37:34.485Z,12.20
2023-04-29T22:40:01.129Z,12.10
2023-04-29T22:42:27.719Z,12.00
2023-04-29T22:44:54.298Z,12.00
2023-04-29T22:47:20.900Z,11.80
2023-04-29T22:49:47.684Z,11.80
2023-04-29T22:52:14.444Z,11.80
2023-04-29T22:54:41.009Z,11.80
2023-04-29T22:57:07.576Z,11.70
2023-04-29T22:59:34.195Z,11.60
2023-04-29T23:02:00.797Z,11.60
2023-04-29T23:04:27.550Z,11.60
2023-04-29T23:06:54.222Z,11.50
2023-04-29T23:09:20.899Z,11.40
2023-04-29T23:11:47.470Z,11.40
2023-04-29T23:14:14.080Z,11.50
2023-04-29T23:16:40.774Z,11.40
2023-04-29T23:19:07.521Z,11.30
2023-04-29T23:21:34.191Z,11.40
2023-04-29T23:24:00.786Z,11.30
2023-04-29T23:26:27.419Z,11.30
2023-04-29T23:28:54.001Z,11.30
2023-04-29T23:31:20.707Z,11.30
2023-04-29T23:33:47.465Z,11.20
2023-04-29T23:36:14.030Z,11.20
2023-04-29T23:38:40.666Z,11.10
2023-04-29T23:41:07.341Z,11.20
2023-04-29T23:43:33.899Z,11.20
2023-04-29T23:46:00.963Z,11.20
2023-04-29T23:48:27.593Z,11.00
2023-04-29T23:50:54.184Z,10.90
2023-04-29T23:53:20.847Z,11.00
2023-04-29T23:55:48.410Z,11.10
2023-04-29T23:58:15.056Z,11.00
